Etusivu
METAR-TAF:

METAR-TAF

Lentoasemat :

Houma-Terrebonne Airport

Houma, Louisiana, Yhdysvallat

Leveyspiiri: 29-34N, Pituuspiiri: 090-40W, korkeus merenpinnasta: 3 m

Tämänhetkinen sää

Tämä raportti tehtiin 25 minuuttia sitten, kello 16.50 UTC
Tuuli 6 kn koillisesta
Lämpötila 6°C
Kosteus 56%
Ilmanpaine 1027 hPa
Näkyvyys: 11.3 km
selkeää

METAR: KHUM 131650Z 05006KT 7SM CLR 06/M02 A3032

Aika: 11:15 (17:15 UTC)

Sääennuste

Tämä raportti tehtiin 5 tuntia ja 24 minuuttia sitten, kello 11.51 UTC
Ennuste voimassa 13. päivästä klo 12 UTC - 14. päivään klo 12 UTC
Tuuli 6 kn pohjoisesta
Näkyvyys: 10 km
selkeää
From 13. päivästä klo 1800 UTC
Tuuli 5 kn koillisesta
Näkyvyys: 10 km
Hajanaisia pilviä 20000 ft:n korkeudessa
Hajonneita pilviä 25000 ft:n korkeudessa

TAF: KHUM 131151Z 1312/1412 01006KT P6SM SKC FM131800 04005KT P6SM SCT200 BKN250

Säähavainnot ja -ennusteet yli 4000 lentoasemalta (METAR- ja TAF-raportit).

Käytössä olevat sääasemat on merkitty karttaan keltaisilla ja punaisilla pisteillä.

Aseta hiiri pisteen päälle nähdäksesi sääaseman nimen.

Klikkaa sitten nähdäksesi säähavainnot ja -ennusteet.

Kartan vaihtaminen: klikkaa mustalla rastilla varustettuja vihreitä pisteitä, niin voit zoomata sisään; viivalla varustettua vihreää pistettä, niin voit zoomata ulos tai vihreitä nuolia, niin pääset viereisille kartoille.


METAR-TAF: